createdAt,value
2018-08-09T05:55:58.380Z,6.93
2018-08-09T05:58:27.548Z,6.00
2018-08-09T06:00:56.612Z,9.37
2018-08-09T06:03:25.740Z,6.53
2018-08-09T06:05:55.029Z,13.73
2018-08-09T06:08:24.352Z,9.10
2018-08-09T06:10:53.455Z,6.77
2018-08-09T06:13:22.642Z,5.97
2018-08-09T06:15:51.664Z,5.63
2018-08-09T06:18:20.829Z,5.93
2018-08-09T06:20:49.986Z,6.77
2018-08-09T06:23:19.115Z,7.07
2018-08-09T06:25:48.225Z,5.53
2018-08-09T06:28:17.415Z,6.37
2018-08-09T06:30:46.929Z,6.03
2018-08-09T06:33:16.066Z,5.20
2018-08-09T06:35:45.990Z,12.93
2018-08-09T06:38:15.129Z,6.23
2018-08-09T06:40:44.344Z,6.50
2018-08-09T06:43:13.512Z,5.53
2018-08-09T06:45:42.668Z,4.87
2018-08-09T06:48:11.826Z,9.37
2018-08-09T06:50:41.002Z,4.23
2018-08-09T06:53:10.168Z,5.00
2018-08-09T06:55:39.434Z,5.90
2018-08-09T06:58:08.628Z,12.37
2018-08-09T07:00:37.801Z,6.50
2018-08-09T07:03:06.959Z,6.57
2018-08-09T07:05:36.354Z,8.30
2018-08-09T07:08:05.536Z,4.90
2018-08-09T07:10:34.782Z,4.45
2018-08-09T07:13:03.984Z,6.17
2018-08-09T07:15:33.215Z,4.60
2018-08-09T07:18:02.660Z,4.10
2018-08-09T07:20:32.179Z,4.23
2018-08-09T07:23:01.432Z,4.30
2018-08-09T07:25:30.856Z,7.27
2018-08-09T07:28:00.503Z,3.90
2018-08-09T07:30:30.606Z,4.70
2018-08-09T07:33:01.145Z,4.07
2018-08-09T07:35:30.696Z,4.20
2018-08-09T07:38:00.730Z,4.10
2018-08-09T07:40:30.703Z,5.42
2018-08-09T07:43:00.646Z,4.33
2018-08-09T07:45:30.786Z,4.37
2018-08-09T07:48:00.736Z,4.07
2018-08-09T07:50:30.742Z,4.93
2018-08-09T07:53:00.836Z,3.60
2018-08-09T07:55:30.764Z,4.62
2018-08-09T07:58:00.760Z,6.20
2018-08-09T08:00:30.885Z,11.07
2018-08-09T08:03:00.815Z,4.90
2018-08-09T08:05:30.989Z,4.40
2018-08-09T08:08:01.037Z,4.80
2018-08-09T08:10:31.007Z,3.97
2018-08-09T08:13:00.889Z,4.07
2018-08-09T08:15:31.012Z,4.60
2018-08-09T08:18:00.945Z,3.53
2018-08-09T08:20:30.973Z,5.33
2018-08-09T08:23:01.092Z,6.87
2018-08-09T08:25:31.033Z,4.90
2018-08-09T08:28:01.590Z,4.30
2018-08-09T08:30:31.080Z,13.50
2018-08-09T08:33:01.164Z,4.67
2018-08-09T08:35:31.095Z,5.47
2018-08-09T08:38:01.175Z,7.80
2018-08-09T08:40:31.188Z,4.60
2018-08-09T08:43:01.200Z,7.87
2018-08-09T08:45:31.340Z,5.95
2018-08-09T08:48:01.225Z,8.10
2018-08-09T08:50:31.224Z,6.50
2018-08-09T08:53:01.206Z,4.77
2018-08-09T08:55:31.348Z,5.07
2018-08-09T08:58:01.342Z,7.33
2018-08-09T09:00:31.478Z,5.17
2018-08-09T09:03:01.384Z,6.00
2018-08-09T09:05:31.414Z,5.05
2018-08-09T09:08:01.543Z,7.40
2018-08-09T09:10:31.395Z,8.30
2018-08-09T09:13:01.522Z,10.73
2018-08-09T09:15:31.399Z,8.43
2018-08-09T09:18:01.572Z,5.83
2018-08-09T09:20:31.517Z,5.37
2018-08-09T09:23:01.592Z,6.27
2018-08-09T09:25:31.521Z,8.03
2018-08-09T09:28:01.564Z,6.30
2018-08-09T09:30:31.590Z,5.37
2018-08-09T09:33:01.578Z,7.10
2018-08-09T09:35:31.614Z,5.63
2018-08-09T09:38:01.602Z,5.80
2018-08-09T09:40:31.554Z,6.73
2018-08-09T09:43:01.629Z,5.87
2018-08-09T09:45:31.639Z,7.23
2018-08-09T09:48:01.660Z,6.07
2018-08-09T09:50:31.712Z,5.90
2018-08-09T09:53:01.688Z,4.93
2018-08-09T09:55:31.778Z,5.43
2018-08-09T09:58:01.845Z,4.87
2018-08-09T10:00:38.815Z,5.37
2018-08-09T10:03:08.031Z,4.73
2018-08-09T10:05:37.228Z,7.95
2018-08-09T10:08:06.516Z,9.65
2018-08-09T10:10:35.759Z,4.67
2018-08-09T10:13:04.960Z,6.30
2018-08-09T10:15:34.112Z,4.70
2018-08-09T10:18:03.302Z,4.00
2018-08-09T10:20:32.569Z,5.73
2018-08-09T10:23:01.912Z,3.70
2018-08-09T10:25:31.949Z,4.30
2018-08-09T10:28:01.111Z,4.20
2018-08-09T10:30:30.251Z,4.20
2018-08-09T10:32:59.684Z,3.50
2018-08-09T10:35:28.913Z,7.47
2018-08-09T10:37:58.047Z,5.17
2018-08-09T10:40:27.242Z,4.10
2018-08-09T10:42:56.383Z,4.30
2018-08-09T10:45:25.532Z,4.20
2018-08-09T10:47:54.738Z,4.50
2018-08-09T10:50:23.969Z,6.27
2018-08-09T10:52:53.153Z,3.63
2018-08-09T10:55:22.344Z,4.40
2018-08-09T10:57:51.481Z,5.13
2018-08-09T11:00:20.656Z,4.23
2018-08-09T11:02:50.069Z,6.03
2018-08-09T11:05:19.300Z,4.83
2018-08-09T11:07:48.519Z,4.50
2018-08-09T11:10:17.691Z,4.45
2018-08-09T11:12:46.937Z,6.20
2018-08-09T11:15:16.151Z,5.47
2018-08-09T11:17:45.356Z,3.87
2018-08-09T11:20:14.553Z,4.08
2018-08-09T11:22:43.782Z,3.93
2018-08-09T11:25:12.998Z,3.97
2018-08-09T11:27:42.147Z,6.78
2018-08-09T11:30:11.371Z,4.63
2018-08-09T11:32:40.503Z,4.50
2018-08-09T11:35:09.684Z,3.90
2018-08-09T11:37:38.891Z,3.50
2018-08-09T11:40:08.183Z,3.17
2018-08-09T11:42:37.434Z,4.00
2018-08-09T11:45:06.849Z,3.53
2018-08-09T11:47:35.977Z,3.67
2018-08-09T11:50:05.644Z,5.30
2018-08-09T11:52:34.825Z,3.97
2018-08-09T11:55:04.009Z,3.73
2018-08-09T11:57:33.178Z,3.87
2018-08-09T12:00:02.912Z,3.75
2018-08-09T12:02:32.844Z,4.17
2018-08-09T12:05:01.955Z,4.50
2018-08-09T12:07:31.159Z,3.77
2018-08-09T12:10:00.921Z,3.70
2018-08-09T12:12:30.125Z,3.73
2018-08-09T12:14:59.283Z,6.47
2018-08-09T12:17:28.433Z,3.57
2018-08-09T12:19:57.741Z,3.70
2018-08-09T12:22:26.912Z,3.60
2018-08-09T12:24:56.156Z,3.67
2018-08-09T12:27:25.401Z,3.63
2018-08-09T12:29:54.651Z,4.00
2018-08-09T12:32:24.106Z,3.63
2018-08-09T12:34:53.284Z,3.83
2018-08-09T12:37:22.512Z,4.07
2018-08-09T12:39:51.695Z,4.13
2018-08-09T12:42:20.943Z,5.50
2018-08-09T12:44:50.243Z,3.40
2018-08-09T12:47:19.553Z,6.27
2018-08-09T12:49:48.765Z,4.53
2018-08-09T12:52:17.981Z,3.07
2018-08-09T12:54:47.469Z,3.93
2018-08-09T12:57:16.672Z,3.67
2018-08-09T12:59:45.852Z,3.30
2018-08-09T13:02:15.072Z,3.02
2018-08-09T13:04:44.295Z,3.20
2018-08-09T13:07:13.482Z,6.73
2018-08-09T13:09:42.733Z,3.20
2018-08-09T13:12:12.023Z,4.03
2018-08-09T13:14:41.292Z,3.53
2018-08-09T13:17:10.581Z,3.42
2018-08-09T13:19:39.805Z,3.30
2018-08-09T13:22:09.026Z,3.27
2018-08-09T13:24:38.429Z,3.25
2018-08-09T13:27:07.688Z,3.33
2018-08-09T13:29:36.926Z,5.97
2018-08-09T13:32:06.145Z,3.10
2018-08-09T13:34:35.314Z,2.87
2018-08-09T13:37:04.746Z,3.70
2018-08-09T13:39:33.889Z,3.00
2018-08-09T13:42:03.870Z,4.62
2018-08-09T13:44:33.897Z,3.72
2018-08-09T13:47:04.046Z,3.68
2018-08-09T13:49:34.003Z,3.00
2018-08-09T13:52:04.052Z,6.35
2018-08-09T13:54:33.936Z,5.33
2018-08-09T13:57:03.984Z,3.20
2018-08-09T13:59:33.869Z,3.55
2018-08-09T14:02:04.006Z,10.20
2018-08-09T14:04:34.068Z,2.72
2018-08-09T14:07:04.142Z,2.90
2018-08-09T14:09:34.146Z,5.40
2018-08-09T14:12:04.044Z,3.02
2018-08-09T14:14:34.056Z,4.58
2018-08-09T14:17:04.047Z,3.52
2018-08-09T14:19:34.177Z,3.00
2018-08-09T14:22:04.167Z,4.62
2018-08-09T14:24:34.234Z,3.10
2018-08-09T14:27:04.204Z,3.20
2018-08-09T14:29:34.216Z,2.80
2018-08-09T14:32:04.388Z,4.22
2018-08-09T14:34:34.329Z,4.00
2018-08-09T14:37:04.513Z,3.48
2018-08-09T14:39:34.438Z,2.82
2018-08-09T14:42:04.432Z,2.77
2018-08-09T14:44:34.449Z,4.17
2018-08-09T14:47:04.405Z,2.83
2018-08-09T14:49:34.449Z,4.05
2018-08-09T14:52:04.429Z,2.70
2018-08-09T14:54:34.539Z,3.22
2018-08-09T14:57:04.639Z,2.40
2018-08-09T14:59:34.523Z,2.42
2018-08-09T15:02:04.729Z,2.80
2018-08-09T15:04:34.581Z,3.42
2018-08-09T15:07:04.622Z,2.98
2018-08-09T15:09:34.597Z,2.72
2018-08-09T15:12:04.878Z,2.22
2018-08-09T15:14:34.700Z,2.92
2018-08-09T15:17:05.105Z,2.85
2018-08-09T15:19:35.109Z,3.10
2018-08-09T15:22:05.161Z,3.22
2018-08-09T15:24:35.167Z,3.00
2018-08-09T15:27:05.198Z,3.45
2018-08-09T15:29:34.691Z,3.02
2018-08-09T15:32:03.901Z,2.83
2018-08-09T15:34:33.101Z,3.65
2018-08-09T15:37:02.300Z,2.98
2018-08-09T15:39:31.435Z,3.40
2018-08-09T15:42:00.623Z,7.00
2018-08-09T15:44:29.740Z,5.57
2018-08-09T15:46:58.967Z,3.42
2018-08-09T15:49:28.074Z,3.90
2018-08-09T15:51:57.280Z,5.47
2018-08-09T15:54:26.518Z,3.85
2018-08-09T15:56:55.729Z,3.25
2018-08-09T15:59:24.916Z,3.58
2018-08-09T16:01:54.126Z,5.10
2018-08-09T16:04:23.374Z,4.22
2018-08-09T16:06:52.568Z,3.70
2018-08-09T16:09:21.732Z,4.55
2018-08-09T16:11:50.936Z,4.17
2018-08-09T16:14:20.138Z,6.05
2018-08-09T16:16:49.369Z,7.40
2018-08-09T16:19:18.542Z,3.40
2018-08-09T16:21:47.693Z,5.33
2018-08-09T16:24:16.886Z,3.30
2018-08-09T16:26:46.152Z,3.35
2018-08-09T16:29:15.373Z,3.40
2018-08-09T16:44:43.978Z,3.60
2018-08-09T16:47:13.170Z,3.00
2018-08-09T16:49:42.343Z,3.67
2018-08-09T16:52:11.692Z,3.73
2018-08-09T16:54:40.846Z,5.35
2018-08-09T16:57:10.015Z,6.85
2018-08-09T16:59:39.188Z,7.45
2018-08-09T17:02:08.338Z,5.40
2018-08-09T17:04:37.513Z,5.70
2018-08-09T17:07:06.724Z,9.73
2018-08-09T17:09:35.853Z,6.13
2018-08-09T17:12:05.817Z,3.73
2018-08-09T17:14:35.854Z,4.33
2018-08-09T17:17:06.234Z,4.43
2018-08-09T17:19:35.866Z,3.90
2018-08-09T17:22:06.553Z,5.17
2018-08-09T17:24:35.843Z,5.80
2018-08-09T17:27:05.920Z,5.30
2018-08-09T17:29:36.036Z,4.05
2018-08-09T17:32:05.988Z,5.50
2018-08-09T17:34:35.961Z,4.07
2018-08-09T17:37:06.121Z,25.45
2018-08-09T17:39:36.035Z,34.50
2018-08-09T17:42:06.152Z,27.43
2018-08-09T17:44:36.072Z,19.63
2018-08-09T17:47:06.277Z,12.80
2018-08-09T17:49:36.088Z,13.20
2018-08-09T17:52:06.506Z,11.73
2018-08-09T17:54:36.325Z,20.97
2018-08-09T17:57:06.517Z,14.30
2018-08-09T17:59:36.273Z,13.20
2018-08-09T18:02:06.301Z,5.67
2018-08-09T18:04:36.179Z,8.53
2018-08-09T18:07:06.391Z,11.63
2018-08-09T18:09:36.216Z,11.53
2018-08-09T18:12:06.347Z,11.47
2018-08-09T18:14:36.235Z,9.47
2018-08-09T18:17:06.351Z,5.87
2018-08-09T18:19:36.270Z,7.10
2018-08-09T18:22:07.086Z,7.20
2018-08-09T18:24:36.515Z,5.27
2018-08-09T18:27:06.499Z,9.03
2018-08-09T18:29:36.514Z,10.30
2018-08-09T18:32:06.495Z,8.20
2018-08-09T18:34:36.515Z,10.13
2018-08-09T18:37:06.677Z,5.80
2018-08-09T18:39:36.551Z,9.63
2018-08-09T18:42:06.645Z,10.70
2018-08-09T18:44:36.609Z,7.37
2018-08-09T18:47:06.603Z,9.27
2018-08-09T18:49:36.961Z,6.53
2018-08-09T18:52:06.809Z,10.03
2018-08-09T18:54:36.828Z,6.63
2018-08-09T18:57:06.715Z,5.33
2018-08-09T18:59:36.832Z,5.10
2018-08-09T19:02:07.021Z,7.80
2018-08-09T19:04:36.960Z,5.43
2018-08-09T19:07:07.407Z,6.03
2018-08-09T19:09:36.999Z,3.63
2018-08-09T19:12:07.151Z,5.20
2018-08-09T19:14:37.006Z,7.30
2018-08-09T19:17:07.170Z,6.77
2018-08-09T19:19:36.917Z,7.00
2018-08-09T19:22:07.108Z,7.50
2018-08-09T19:24:37.123Z,6.05
2018-08-09T19:27:07.102Z,6.80
2018-08-09T19:29:37.131Z,7.60
2018-08-09T19:32:07.342Z,4.85
2018-08-09T19:34:37.306Z,4.50
2018-08-09T19:37:07.475Z,5.17
2018-08-09T19:39:37.425Z,6.53
2018-08-09T19:42:07.286Z,4.15
2018-08-09T19:44:37.305Z,6.43
2018-08-09T19:47:07.397Z,4.60
2018-08-09T19:49:37.364Z,3.53
2018-08-09T19:52:07.407Z,9.93
2018-08-09T19:54:37.520Z,7.30
2018-08-09T19:57:07.435Z,6.10
2018-08-09T19:59:37.483Z,7.53
2018-08-09T20:02:07.634Z,5.37
2018-08-09T20:04:37.509Z,3.35
2018-08-09T20:07:07.621Z,5.80
2018-08-09T20:09:37.544Z,7.67
2018-08-09T20:12:07.619Z,6.22
2018-08-09T20:14:37.562Z,6.30
2018-08-09T20:17:07.466Z,4.97
2018-08-09T20:19:36.759Z,11.13
2018-08-09T20:22:08.213Z,6.10
2018-08-09T20:24:37.482Z,6.13
2018-08-09T20:27:07.646Z,6.95
2018-08-09T20:29:37.705Z,7.27
2018-08-09T20:32:07.858Z,11.60
2018-08-09T20:34:37.741Z,6.90
2018-08-09T20:37:07.774Z,6.83
2018-08-09T20:39:37.800Z,5.60
2018-08-09T20:42:08.119Z,5.03
2018-08-09T20:44:37.873Z,6.37
2018-08-09T20:47:07.947Z,6.12
2018-08-09T20:49:37.966Z,5.30
2018-08-09T20:52:07.847Z,6.53
2018-08-09T20:54:37.918Z,6.93
2018-08-09T20:57:08.121Z,4.40
2018-08-09T20:59:37.958Z,12.67
2018-08-09T21:02:08.221Z,6.27
2018-08-09T21:04:38.024Z,5.77
2018-08-09T21:07:08.087Z,6.05
2018-08-09T21:09:37.270Z,8.07
2018-08-09T21:12:06.430Z,9.50
2018-08-09T21:14:35.620Z,8.30
2018-08-09T21:17:04.950Z,4.90
2018-08-09T21:19:34.128Z,7.00
2018-08-09T21:22:03.302Z,11.40
2018-08-09T21:24:32.528Z,5.10
2018-08-09T21:27:01.735Z,6.57
2018-08-09T21:29:30.897Z,8.23
2018-08-09T21:32:00.363Z,6.73
2018-08-09T21:34:29.492Z,5.93
2018-08-09T21:36:58.698Z,7.73
2018-08-09T21:39:27.849Z,6.87
2018-08-09T21:41:56.996Z,5.67
2018-08-09T21:44:26.185Z,5.30
2018-08-09T21:46:55.474Z,7.23
2018-08-09T21:49:24.678Z,4.40
2018-08-09T21:51:53.936Z,5.23
2018-08-09T21:54:23.021Z,5.67
2018-08-09T21:56:52.211Z,5.37
2018-08-09T21:59:21.359Z,4.03
2018-08-09T22:01:50.652Z,5.50
2018-08-09T22:04:19.791Z,5.97
2018-08-09T22:06:54.232Z,4.93
2018-08-09T22:09:28.656Z,6.27
2018-08-09T22:12:03.080Z,5.03
2018-08-09T22:14:37.540Z,5.10
2018-08-09T22:17:11.987Z,8.83
2018-08-09T22:19:46.520Z,6.30
2018-08-09T22:22:16.088Z,5.37
2018-08-09T22:24:45.248Z,5.78
2018-08-09T22:27:14.448Z,4.27
2018-08-09T22:29:43.636Z,5.27
2018-08-09T22:32:12.776Z,5.80
2018-08-09T22:34:41.948Z,4.17
2018-08-09T22:37:11.191Z,7.57
2018-08-09T22:39:40.339Z,5.70
2018-08-09T22:42:10.086Z,4.92
2018-08-09T22:44:39.932Z,5.30
2018-08-09T22:47:10.126Z,5.72
2018-08-09T22:49:40.097Z,4.40
2018-08-09T22:52:10.135Z,3.77
2018-08-09T22:54:40.121Z,6.70
2018-08-09T22:57:10.296Z,4.67
2018-08-09T22:59:40.540Z,5.90
2018-08-09T23:02:11.003Z,6.30
2018-08-09T23:04:40.749Z,4.27
2018-08-09T23:07:10.679Z,4.43
2018-08-09T23:09:40.638Z,5.70
2018-08-09T23:12:10.733Z,5.30
2018-08-09T23:14:40.780Z,3.90
2018-08-09T23:17:10.815Z,4.60
2018-08-09T23:19:41.233Z,3.10
2018-08-09T23:22:11.923Z,4.97
2018-08-09T23:24:41.325Z,5.33
2018-08-09T23:27:10.820Z,3.87
2018-08-09T23:29:40.822Z,4.53
2018-08-09T23:32:15.365Z,4.55
2018-08-09T23:34:44.803Z,5.67
2018-08-09T23:37:14.201Z,6.20
2018-08-09T23:39:43.661Z,4.57
2018-08-09T23:42:15.969Z,3.77
2018-08-09T23:44:45.403Z,9.53
2018-08-09T23:47:14.809Z,8.60
2018-08-09T23:49:44.234Z,5.80
2018-08-09T23:52:13.754Z,6.17
2018-08-09T23:54:43.333Z,7.17
2018-08-09T23:57:12.704Z,8.93
2018-08-09T23:59:42.127Z,5.67
